Terminal Aerodrome Forecast
Issued by NWS

Home | Current Version | Previous Version | Text Only | Print | Product List | Glossary On
Versions: 1 2 3 4 5 6 7 8 9 10 11 12 13 14
000
FTUS45 KGGW 310500
TAFGDV
TAF
KGDV 310520Z 3106/0106 12008KT P6SM OVC015
     FM311200 14012KT P6SM BKN029
     FM311800 15017KT P6SM SCT220
      AMD LTD TO CLD VIS AND WIND=

USA.gov is the U.S. government's official web portal to all federal, state and local government web resources and services.